sensor_id;sensor_type;location;lat;lon;timestamp;P1;durP1;ratioP1;P2;durP2;ratioP2
26201;SDS011;13944;28.562;77.188;2022-12-07T00:01:06;210.03;;;122.90;;
26201;SDS011;13944;28.562;77.188;2022-12-07T00:03:33;196.40;;;121.30;;
26201;SDS011;13944;28.562;77.188;2022-12-07T00:06:00;206.43;;;121.73;;
26201;SDS011;13944;28.562;77.188;2022-12-07T00:08:26;200.93;;;122.07;;
26201;SDS011;13944;28.562;77.188;2022-12-07T00:10:53;199.93;;;122.83;;
26201;SDS011;13944;28.562;77.188;2022-12-07T00:13:19;195.97;;;119.97;;
26201;SDS011;13944;28.562;77.188;2022-12-07T00:15:46;196.50;;;124.00;;
26201;SDS011;13944;28.562;77.188;2022-12-07T00:18:12;202.10;;;124.93;;
26201;SDS011;13944;28.562;77.188;2022-12-07T00:20:39;209.47;;;125.63;;
26201;SDS011;13944;28.562;77.188;2022-12-07T00:23:05;206.10;;;126.70;;
26201;SDS011;13944;28.562;77.188;2022-12-07T00:25:32;212.70;;;127.87;;
26201;SDS011;13944;28.562;77.188;2022-12-07T00:27:58;207.00;;;125.43;;
26201;SDS011;13944;28.562;77.188;2022-12-07T00:30:25;210.97;;;125.03;;
26201;SDS011;13944;28.562;77.188;2022-12-07T00:32:51;204.20;;;124.57;;
26201;SDS011;13944;28.562;77.188;2022-12-07T00:35:18;217.37;;;128.47;;
26201;SDS011;13944;28.562;77.188;2022-12-07T00:37:44;218.90;;;128.17;;
26201;SDS011;13944;28.562;77.188;2022-12-07T00:40:11;210.33;;;126.20;;
26201;SDS011;13944;28.562;77.188;2022-12-07T00:42:38;214.00;;;126.60;;
26201;SDS011;13944;28.562;77.188;2022-12-07T00:45:04;200.13;;;124.20;;
26201;SDS011;13944;28.562;77.188;2022-12-07T00:47:31;201.57;;;126.37;;
26201;SDS011;13944;28.562;77.188;2022-12-07T00:49:57;206.23;;;123.20;;
26201;SDS011;13944;28.562;77.188;2022-12-07T00:52:25;210.37;;;127.00;;
26201;SDS011;13944;28.562;77.188;2022-12-07T00:54:51;200.23;;;125.60;;
26201;SDS011;13944;28.562;77.188;2022-12-07T00:57:18;212.93;;;125.87;;
26201;SDS011;13944;28.562;77.188;2022-12-07T00:59:44;213.53;;;125.87;;
26201;SDS011;13944;28.562;77.188;2022-12-07T01:02:11;208.10;;;128.30;;
26201;SDS011;13944;28.562;77.188;2022-12-07T01:04:38;223.60;;;127.90;;
26201;SDS011;13944;28.562;77.188;2022-12-07T01:07:04;214.67;;;127.80;;
26201;SDS011;13944;28.562;77.188;2022-12-07T01:09:31;211.07;;;125.33;;
26201;SDS011;13944;28.562;77.188;2022-12-07T01:11:57;221.10;;;130.50;;
26201;SDS011;13944;28.562;77.188;2022-12-07T01:14:24;214.37;;;129.87;;
26201;SDS011;13944;28.562;77.188;2022-12-07T01:16:50;220.53;;;129.93;;
26201;SDS011;13944;28.562;77.188;2022-12-07T01:19:17;212.83;;;126.27;;
26201;SDS011;13944;28.562;77.188;2022-12-07T01:21:43;213.60;;;128.40;;
26201;SDS011;13944;28.562;77.188;2022-12-07T01:24:10;215.50;;;130.13;;
26201;SDS011;13944;28.562;77.188;2022-12-07T01:26:37;213.60;;;128.77;;
26201;SDS011;13944;28.562;77.188;2022-12-07T01:29:04;259.90;;;131.97;;
26201;SDS011;13944;28.562;77.188;2022-12-07T01:31:31;239.93;;;144.13;;
26201;SDS011;13944;28.562;77.188;2022-12-07T01:33:58;223.90;;;132.70;;
26201;SDS011;13944;28.562;77.188;2022-12-07T01:36:29;223.47;;;134.73;;
26201;SDS011;13944;28.562;77.188;2022-12-07T01:38:57;224.53;;;131.53;;
26201;SDS011;13944;28.562;77.188;2022-12-07T01:41:25;228.27;;;133.37;;
26201;SDS011;13944;28.562;77.188;2022-12-07T01:44:12;232.57;;;135.07;;
26201;SDS011;13944;28.562;77.188;2022-12-07T01:46:40;227.57;;;130.17;;
26201;SDS011;13944;28.562;77.188;2022-12-07T01:49:08;225.03;;;133.20;;
26201;SDS011;13944;28.562;77.188;2022-12-07T01:51:35;228.77;;;134.13;;
26201;SDS011;13944;28.562;77.188;2022-12-07T01:54:03;223.03;;;130.47;;
26201;SDS011;13944;28.562;77.188;2022-12-07T01:56:29;234.17;;;132.97;;
26201;SDS011;13944;28.562;77.188;2022-12-07T01:58:57;239.97;;;137.53;;
26201;SDS011;13944;28.562;77.188;2022-12-07T02:01:25;235.23;;;133.33;;
26201;SDS011;13944;28.562;77.188;2022-12-07T02:03:51;225.10;;;129.50;;
26201;SDS011;13944;28.562;77.188;2022-12-07T02:06:19;238.53;;;135.93;;
26201;SDS011;13944;28.562;77.188;2022-12-07T02:08:47;222.63;;;130.83;;
26201;SDS011;13944;28.562;77.188;2022-12-07T02:11:13;230.60;;;132.67;;
26201;SDS011;13944;28.562;77.188;2022-12-07T02:13:41;237.27;;;133.93;;
26201;SDS011;13944;28.562;77.188;2022-12-07T02:16:10;249.43;;;134.83;;
26201;SDS011;13944;28.562;77.188;2022-12-07T02:18:59;244.80;;;135.47;;
26201;SDS011;13944;28.562;77.188;2022-12-07T02:31:53;239.77;;;136.37;;
26201;SDS011;13944;28.562;77.188;2022-12-07T02:34:46;222.30;;;129.63;;
26201;SDS011;13944;28.562;77.188;2022-12-07T02:37:10;220.53;;;127.73;;
26201;SDS011;13944;28.562;77.188;2022-12-07T02:39:47;202.90;;;119.97;;
26201;SDS011;13944;28.562;77.188;2022-12-07T02:42:18;216.07;;;126.40;;
26201;SDS011;13944;28.562;77.188;2022-12-07T02:44:47;216.47;;;126.43;;
26201;SDS011;13944;28.562;77.188;2022-12-07T02:47:14;203.13;;;122.33;;
26201;SDS011;13944;28.562;77.188;2022-12-07T02:49:42;208.47;;;123.80;;
26201;SDS011;13944;28.562;77.188;2022-12-07T02:52:08;220.80;;;128.53;;
26201;SDS011;13944;28.562;77.188;2022-12-07T02:54:35;212.90;;;127.30;;
26201;SDS011;13944;28.562;77.188;2022-12-07T02:57:06;213.43;;;123.00;;
26201;SDS011;13944;28.562;77.188;2022-12-07T03:07:33;207.83;;;127.20;;
26201;SDS011;13944;28.562;77.188;2022-12-07T03:12:42;210.00;;;124.83;;
26201;SDS011;13944;28.562;77.188;2022-12-07T03:15:33;211.67;;;127.53;;
26201;SDS011;13944;28.562;77.188;2022-12-07T03:17:57;209.93;;;126.73;;
26201;SDS011;13944;28.562;77.188;2022-12-07T03:20:25;218.90;;;129.00;;
26201;SDS011;13944;28.562;77.188;2022-12-07T03:22:53;205.63;;;125.73;;
26201;SDS011;13944;28.562;77.188;2022-12-07T03:25:20;216.47;;;129.60;;
26201;SDS011;13944;28.562;77.188;2022-12-07T03:27:57;212.80;;;128.93;;
26201;SDS011;13944;28.562;77.188;2022-12-07T03:30:28;212.13;;;128.10;;
26201;SDS011;13944;28.562;77.188;2022-12-07T03:35:29;219.93;;;134.20;;
26201;SDS011;13944;28.562;77.188;2022-12-07T03:37:59;211.97;;;125.90;;
26201;SDS011;13944;28.562;77.188;2022-12-07T03:43:11;207.03;;;125.83;;
26201;SDS011;13944;28.562;77.188;2022-12-07T03:45:45;208.40;;;130.00;;
26201;SDS011;13944;28.562;77.188;2022-12-07T03:50:44;228.77;;;134.93;;
26201;SDS011;13944;28.562;77.188;2022-12-07T03:53:15;223.80;;;132.57;;
26201;SDS011;13944;28.562;77.188;2022-12-07T03:55:43;211.70;;;129.20;;
26201;SDS011;13944;28.562;77.188;2022-12-07T03:58:19;223.93;;;134.43;;
26201;SDS011;13944;28.562;77.188;2022-12-07T04:00:46;220.50;;;134.27;;
26201;SDS011;13944;28.562;77.188;2022-12-07T04:03:13;220.97;;;133.47;;
26201;SDS011;13944;28.562;77.188;2022-12-07T04:05:40;221.10;;;133.00;;
26201;SDS011;13944;28.562;77.188;2022-12-07T04:08:06;218.67;;;131.03;;
26201;SDS011;13944;28.562;77.188;2022-12-07T04:10:33;208.03;;;128.07;;
26201;SDS011;13944;28.562;77.188;2022-12-07T04:13:00;222.53;;;133.67;;
26201;SDS011;13944;28.562;77.188;2022-12-07T04:15:26;213.37;;;130.13;;
26201;SDS011;13944;28.562;77.188;2022-12-07T04:17:53;207.07;;;122.30;;
26201;SDS011;13944;28.562;77.188;2022-12-07T04:20:20;210.77;;;128.63;;
26201;SDS011;13944;28.562;77.188;2022-12-07T04:22:46;213.93;;;129.57;;
26201;SDS011;13944;28.562;77.188;2022-12-07T04:25:13;219.17;;;130.33;;
26201;SDS011;13944;28.562;77.188;2022-12-07T04:27:39;221.10;;;131.87;;
26201;SDS011;13944;28.562;77.188;2022-12-07T04:30:06;226.23;;;135.77;;
26201;SDS011;13944;28.562;77.188;2022-12-07T04:32:33;206.13;;;130.97;;
26201;SDS011;13944;28.562;77.188;2022-12-07T04:34:59;213.57;;;132.57;;
26201;SDS011;13944;28.562;77.188;2022-12-07T04:37:26;222.47;;;132.73;;
26201;SDS011;13944;28.562;77.188;2022-12-07T04:39:52;219.10;;;129.53;;
26201;SDS011;13944;28.562;77.188;2022-12-07T04:42:19;212.57;;;130.13;;
26201;SDS011;13944;28.562;77.188;2022-12-07T04:44:45;201.63;;;127.03;;
26201;SDS011;13944;28.562;77.188;2022-12-07T04:47:12;213.90;;;126.00;;
26201;SDS011;13944;28.562;77.188;2022-12-07T04:49:39;207.70;;;125.47;;
26201;SDS011;13944;28.562;77.188;2022-12-07T04:52:05;204.67;;;124.80;;
26201;SDS011;13944;28.562;77.188;2022-12-07T04:54:32;214.57;;;126.87;;
26201;SDS011;13944;28.562;77.188;2022-12-07T04:56:58;207.77;;;118.37;;
26201;SDS011;13944;28.562;77.188;2022-12-07T04:59:25;186.57;;;116.87;;
26201;SDS011;13944;28.562;77.188;2022-12-07T05:01:53;181.93;;;108.63;;
26201;SDS011;13944;28.562;77.188;2022-12-07T05:04:20;180.60;;;110.33;;
26201;SDS011;13944;28.562;77.188;2022-12-07T05:06:46;177.63;;;105.37;;
26201;SDS011;13944;28.562;77.188;2022-12-07T05:09:13;182.50;;;108.27;;
26201;SDS011;13944;28.562;77.188;2022-12-07T05:11:39;189.67;;;113.40;;
26201;SDS011;13944;28.562;77.188;2022-12-07T05:14:10;179.73;;;106.20;;
26201;SDS011;13944;28.562;77.188;2022-12-07T05:16:38;179.90;;;108.80;;
26201;SDS011;13944;28.562;77.188;2022-12-07T05:19:05;173.17;;;104.90;;
26201;SDS011;13944;28.562;77.188;2022-12-07T05:21:31;191.00;;;114.10;;
26201;SDS011;13944;28.562;77.188;2022-12-07T05:23:58;172.70;;;106.40;;
26201;SDS011;13944;28.562;77.188;2022-12-07T05:26:25;164.63;;;105.57;;
26201;SDS011;13944;28.562;77.188;2022-12-07T05:28:52;169.77;;;107.40;;
26201;SDS011;13944;28.562;77.188;2022-12-07T05:31:19;160.53;;;100.83;;
26201;SDS011;13944;28.562;77.188;2022-12-07T05:33:45;182.07;;;112.50;;
26201;SDS011;13944;28.562;77.188;2022-12-07T05:36:12;178.03;;;104.43;;
26201;SDS011;13944;28.562;77.188;2022-12-07T05:38:39;179.70;;;107.93;;
26201;SDS011;13944;28.562;77.188;2022-12-07T05:41:06;154.10;;;93.50;;
26201;SDS011;13944;28.562;77.188;2022-12-07T05:43:53;173.13;;;105.43;;
26201;SDS011;13944;28.562;77.188;2022-12-07T05:46:20;163.77;;;102.03;;
26201;SDS011;13944;28.562;77.188;2022-12-07T05:48:48;172.10;;;102.67;;
26201;SDS011;13944;28.562;77.188;2022-12-07T05:51:14;167.70;;;102.67;;
26201;SDS011;13944;28.562;77.188;2022-12-07T05:53:41;166.50;;;102.80;;
26201;SDS011;13944;28.562;77.188;2022-12-07T05:56:07;168.73;;;102.80;;
26201;SDS011;13944;28.562;77.188;2022-12-07T05:58:34;176.90;;;105.90;;
26201;SDS011;13944;28.562;77.188;2022-12-07T06:01:19;149.67;;;94.33;;
26201;SDS011;13944;28.562;77.188;2022-12-07T06:03:45;159.00;;;92.33;;
26201;SDS011;13944;28.562;77.188;2022-12-07T06:06:12;152.67;;;97.83;;
26201;SDS011;13944;28.562;77.188;2022-12-07T06:08:38;165.63;;;103.83;;
26201;SDS011;13944;28.562;77.188;2022-12-07T06:11:05;147.63;;;94.83;;
26201;SDS011;13944;28.562;77.188;2022-12-07T06:13:50;163.70;;;97.20;;
26201;SDS011;13944;28.562;77.188;2022-12-07T06:16:16;177.07;;;108.43;;
26201;SDS011;13944;28.562;77.188;2022-12-07T06:18:43;168.60;;;107.13;;
26201;SDS011;13944;28.562;77.188;2022-12-07T06:21:10;183.00;;;107.97;;
26201;SDS011;13944;28.562;77.188;2022-12-07T06:23:36;182.70;;;109.87;;
26201;SDS011;13944;28.562;77.188;2022-12-07T06:26:03;168.33;;;104.20;;
26201;SDS011;13944;28.562;77.188;2022-12-07T06:28:29;158.13;;;97.10;;
26201;SDS011;13944;28.562;77.188;2022-12-07T06:30:57;160.53;;;102.67;;
26201;SDS011;13944;28.562;77.188;2022-12-07T06:33:24;161.87;;;104.57;;
26201;SDS011;13944;28.562;77.188;2022-12-07T06:35:50;166.83;;;103.27;;
26201;SDS011;13944;28.562;77.188;2022-12-07T06:38:17;171.50;;;104.57;;
26201;SDS011;13944;28.562;77.188;2022-12-07T06:40:43;186.53;;;112.23;;
26201;SDS011;13944;28.562;77.188;2022-12-07T06:43:10;152.40;;;99.50;;
26201;SDS011;13944;28.562;77.188;2022-12-07T06:45:37;146.83;;;92.97;;
26201;SDS011;13944;28.562;77.188;2022-12-07T06:48:03;159.70;;;98.67;;
26201;SDS011;13944;28.562;77.188;2022-12-07T06:50:30;178.13;;;110.97;;
26201;SDS011;13944;28.562;77.188;2022-12-07T06:52:56;171.67;;;109.50;;
26201;SDS011;13944;28.562;77.188;2022-12-07T06:55:23;155.10;;;95.73;;
26201;SDS011;13944;28.562;77.188;2022-12-07T06:57:49;162.00;;;99.10;;
26201;SDS011;13944;28.562;77.188;2022-12-07T07:00:16;149.20;;;93.50;;
26201;SDS011;13944;28.562;77.188;2022-12-07T07:02:43;162.07;;;98.40;;
26201;SDS011;13944;28.562;77.188;2022-12-07T07:05:09;166.40;;;101.70;;
26201;SDS011;13944;28.562;77.188;2022-12-07T07:07:36;162.73;;;100.60;;
26201;SDS011;13944;28.562;77.188;2022-12-07T07:10:02;153.63;;;95.07;;
26201;SDS011;13944;28.562;77.188;2022-12-07T07:12:29;146.97;;;97.30;;
26201;SDS011;13944;28.562;77.188;2022-12-07T07:14:55;145.10;;;92.03;;
26201;SDS011;13944;28.562;77.188;2022-12-07T07:17:22;137.10;;;85.80;;
26201;SDS011;13944;28.562;77.188;2022-12-07T07:19:48;150.67;;;88.53;;
26201;SDS011;13944;28.562;77.188;2022-12-07T07:22:15;140.50;;;82.87;;
26201;SDS011;13944;28.562;77.188;2022-12-07T07:24:41;137.53;;;88.43;;
26201;SDS011;13944;28.562;77.188;2022-12-07T07:27:08;136.50;;;86.33;;
26201;SDS011;13944;28.562;77.188;2022-12-07T07:29:36;142.10;;;86.17;;
26201;SDS011;13944;28.562;77.188;2022-12-07T07:32:03;134.50;;;83.87;;
26201;SDS011;13944;28.562;77.188;2022-12-07T07:34:29;130.00;;;78.43;;
26201;SDS011;13944;28.562;77.188;2022-12-07T07:36:56;126.73;;;78.57;;
26201;SDS011;13944;28.562;77.188;2022-12-07T07:39:22;126.00;;;78.00;;
26201;SDS011;13944;28.562;77.188;2022-12-07T07:41:49;121.37;;;74.20;;
26201;SDS011;13944;28.562;77.188;2022-12-07T07:44:15;123.37;;;76.23;;
26201;SDS011;13944;28.562;77.188;2022-12-07T07:46:42;131.93;;;78.53;;
26201;SDS011;13944;28.562;77.188;2022-12-07T07:49:09;122.83;;;72.10;;
26201;SDS011;13944;28.562;77.188;2022-12-07T07:51:36;118.73;;;75.53;;
26201;SDS011;13944;28.562;77.188;2022-12-07T07:54:02;118.27;;;72.10;;
26201;SDS011;13944;28.562;77.188;2022-12-07T07:56:29;112.23;;;70.20;;
26201;SDS011;13944;28.562;77.188;2022-12-07T07:58:55;113.00;;;69.70;;
26201;SDS011;13944;28.562;77.188;2022-12-07T08:01:22;128.97;;;71.13;;
26201;SDS011;13944;28.562;77.188;2022-12-07T08:03:49;117.43;;;68.90;;
26201;SDS011;13944;28.562;77.188;2022-12-07T08:06:15;115.27;;;70.73;;
26201;SDS011;13944;28.562;77.188;2022-12-07T08:08:42;121.30;;;74.83;;
26201;SDS011;13944;28.562;77.188;2022-12-07T08:11:09;113.67;;;72.57;;
26201;SDS011;13944;28.562;77.188;2022-12-07T08:13:35;114.43;;;69.83;;
26201;SDS011;13944;28.562;77.188;2022-12-07T08:16:06;124.00;;;71.13;;
26201;SDS011;13944;28.562;77.188;2022-12-07T08:18:37;111.53;;;66.57;;
26201;SDS011;13944;28.562;77.188;2022-12-07T08:21:04;102.53;;;61.03;;
26201;SDS011;13944;28.562;77.188;2022-12-07T08:23:31;96.87;;;61.50;;
26201;SDS011;13944;28.562;77.188;2022-12-07T08:26:02;92.83;;;55.50;;
26201;SDS011;13944;28.562;77.188;2022-12-07T08:28:29;89.50;;;54.73;;
26201;SDS011;13944;28.562;77.188;2022-12-07T08:31:03;93.57;;;57.60;;
26201;SDS011;13944;28.562;77.188;2022-12-07T08:33:30;90.30;;;56.60;;
26201;SDS011;13944;28.562;77.188;2022-12-07T08:36:00;98.93;;;54.77;;
26201;SDS011;13944;28.562;77.188;2022-12-07T08:38:27;100.53;;;57.80;;
26201;SDS011;13944;28.562;77.188;2022-12-07T08:40:54;107.03;;;60.37;;
26201;SDS011;13944;28.562;77.188;2022-12-07T08:43:21;84.10;;;52.83;;
26201;SDS011;13944;28.562;77.188;2022-12-07T08:45:49;95.80;;;57.93;;
26201;SDS011;13944;28.562;77.188;2022-12-07T08:48:19;93.30;;;54.80;;
26201;SDS011;13944;28.562;77.188;2022-12-07T08:50:49;92.00;;;57.57;;
26201;SDS011;13944;28.562;77.188;2022-12-07T08:53:16;100.07;;;58.70;;
26201;SDS011;13944;28.562;77.188;2022-12-07T08:55:44;96.93;;;60.00;;
26201;SDS011;13944;28.562;77.188;2022-12-07T08:58:11;89.30;;;55.63;;
26201;SDS011;13944;28.562;77.188;2022-12-07T09:00:37;100.40;;;57.60;;
26201;SDS011;13944;28.562;77.188;2022-12-07T09:03:04;101.67;;;58.77;;
26201;SDS011;13944;28.562;77.188;2022-12-07T09:05:31;91.23;;;57.53;;
26201;SDS011;13944;28.562;77.188;2022-12-07T09:07:59;99.37;;;58.37;;
26201;SDS011;13944;28.562;77.188;2022-12-07T09:10:26;89.07;;;54.40;;
26201;SDS011;13944;28.562;77.188;2022-12-07T09:12:53;88.90;;;56.43;;
26201;SDS011;13944;28.562;77.188;2022-12-07T09:15:20;91.03;;;59.27;;
26201;SDS011;13944;28.562;77.188;2022-12-07T09:17:46;101.10;;;57.57;;
26201;SDS011;13944;28.562;77.188;2022-12-07T09:20:13;100.70;;;58.07;;
26201;SDS011;13944;28.562;77.188;2022-12-07T09:22:39;84.80;;;53.07;;
26201;SDS011;13944;28.562;77.188;2022-12-07T09:25:06;100.87;;;56.27;;
26201;SDS011;13944;28.562;77.188;2022-12-07T09:27:33;89.83;;;51.93;;
26201;SDS011;13944;28.562;77.188;2022-12-07T09:29:59;81.20;;;51.30;;
26201;SDS011;13944;28.562;77.188;2022-12-07T09:32:26;94.67;;;54.90;;
26201;SDS011;13944;28.562;77.188;2022-12-07T09:34:52;93.83;;;54.90;;
26201;SDS011;13944;28.562;77.188;2022-12-07T09:37:19;84.97;;;53.77;;
26201;SDS011;13944;28.562;77.188;2022-12-07T09:39:46;94.50;;;57.77;;
26201;SDS011;13944;28.562;77.188;2022-12-07T09:42:25;96.10;;;56.33;;
26201;SDS011;13944;28.562;77.188;2022-12-07T09:44:52;81.10;;;49.77;;
26201;SDS011;13944;28.562;77.188;2022-12-07T09:47:19;87.00;;;53.20;;
26201;SDS011;13944;28.562;77.188;2022-12-07T09:49:45;81.83;;;53.37;;
26201;SDS011;13944;28.562;77.188;2022-12-07T09:52:47;84.00;;;52.23;;
26201;SDS011;13944;28.562;77.188;2022-12-07T09:55:13;86.53;;;54.20;;
26201;SDS011;13944;28.562;77.188;2022-12-07T09:57:40;83.77;;;53.03;;
26201;SDS011;13944;28.562;77.188;2022-12-07T10:00:15;81.13;;;51.03;;
26201;SDS011;13944;28.562;77.188;2022-12-07T10:02:43;80.00;;;52.53;;
26201;SDS011;13944;28.562;77.188;2022-12-07T10:05:56;77.90;;;49.90;;
26201;SDS011;13944;28.562;77.188;2022-12-07T10:07:57;80.50;;;51.93;;
26201;SDS011;13944;28.562;77.188;2022-12-07T10:10:25;84.97;;;49.80;;
26201;SDS011;13944;28.562;77.188;2022-12-07T10:12:53;82.93;;;51.33;;
26201;SDS011;13944;28.562;77.188;2022-12-07T10:15:20;86.27;;;51.80;;
26201;SDS011;13944;28.562;77.188;2022-12-07T10:17:52;87.17;;;52.07;;
26201;SDS011;13944;28.562;77.188;2022-12-07T10:20:23;75.43;;;46.23;;
26201;SDS011;13944;28.562;77.188;2022-12-07T10:23:02;87.30;;;50.43;;
26201;SDS011;13944;28.562;77.188;2022-12-07T10:25:33;81.70;;;48.83;;
26201;SDS011;13944;28.562;77.188;2022-12-07T10:28:18;87.93;;;53.17;;
26201;SDS011;13944;28.562;77.188;2022-12-07T10:30:49;74.90;;;47.83;;
26201;SDS011;13944;28.562;77.188;2022-12-07T10:36:09;85.80;;;51.57;;
26201;SDS011;13944;28.562;77.188;2022-12-07T10:38:49;88.13;;;49.97;;
26201;SDS011;13944;28.562;77.188;2022-12-07T10:41:16;74.87;;;45.90;;
26201;SDS011;13944;28.562;77.188;2022-12-07T10:43:48;81.87;;;50.57;;
26201;SDS011;13944;28.562;77.188;2022-12-07T10:59:20;83.47;;;50.57;;
26201;SDS011;13944;28.562;77.188;2022-12-07T11:12:28;74.43;;;47.47;;
26201;SDS011;13944;28.562;77.188;2022-12-07T11:17:42;75.23;;;46.27;;
26201;SDS011;13944;28.562;77.188;2022-12-07T11:25:29;73.95;;;45.25;;
26201;SDS011;13944;28.562;77.188;2022-12-07T11:28:11;78.10;;;45.87;;
26201;SDS011;13944;28.562;77.188;2022-12-07T11:33:19;122.60;;;59.83;;
26201;SDS011;13944;28.562;77.188;2022-12-07T11:36:02;128.57;;;61.43;;
26201;SDS011;13944;28.562;77.188;2022-12-07T11:38:37;106.80;;;58.77;;
26201;SDS011;13944;28.562;77.188;2022-12-07T11:41:06;103.27;;;58.47;;
26201;SDS011;13944;28.562;77.188;2022-12-07T11:43:49;103.03;;;56.87;;
26201;SDS011;13944;28.562;77.188;2022-12-07T11:46:17;112.37;;;61.40;;
26201;SDS011;13944;28.562;77.188;2022-12-07T11:48:49;107.43;;;61.67;;
26201;SDS011;13944;28.562;77.188;2022-12-07T11:51:18;117.07;;;66.33;;
26201;SDS011;13944;28.562;77.188;2022-12-07T11:56:16;129.10;;;70.20;;
26201;SDS011;13944;28.562;77.188;2022-12-07T12:03:45;122.03;;;65.73;;
26201;SDS011;13944;28.562;77.188;2022-12-07T12:06:12;119.77;;;67.53;;
26201;SDS011;13944;28.562;77.188;2022-12-07T12:08:41;132.10;;;69.67;;
26201;SDS011;13944;28.562;77.188;2022-12-07T12:13:43;137.63;;;76.53;;
26201;SDS011;13944;28.562;77.188;2022-12-07T12:21:44;149.00;;;77.27;;
26201;SDS011;13944;28.562;77.188;2022-12-07T12:24:14;137.00;;;77.50;;
26201;SDS011;13944;28.562;77.188;2022-12-07T12:26:48;154.60;;;85.13;;
26201;SDS011;13944;28.562;77.188;2022-12-07T12:29:21;145.67;;;84.40;;
26201;SDS011;13944;28.562;77.188;2022-12-07T12:34:39;164.17;;;86.00;;
26201;SDS011;13944;28.562;77.188;2022-12-07T12:42:48;197.37;;;98.93;;
26201;SDS011;13944;28.562;77.188;2022-12-07T12:45:17;180.77;;;102.77;;
26201;SDS011;13944;28.562;77.188;2022-12-07T12:47:58;184.70;;;104.80;;
26201;SDS011;13944;28.562;77.188;2022-12-07T12:50:29;202.70;;;114.93;;
26201;SDS011;13944;28.562;77.188;2022-12-07T12:52:58;189.60;;;116.77;;
26201;SDS011;13944;28.562;77.188;2022-12-07T12:58:29;197.83;;;118.10;;
26201;SDS011;13944;28.562;77.188;2022-12-07T13:03:51;215.50;;;122.80;;
26201;SDS011;13944;28.562;77.188;2022-12-07T13:08:51;214.20;;;123.70;;
26201;SDS011;13944;28.562;77.188;2022-12-07T13:11:29;214.43;;;129.10;;
26201;SDS011;13944;28.562;77.188;2022-12-07T13:16:42;195.83;;;124.33;;
26201;SDS011;13944;28.562;77.188;2022-12-07T13:21:54;197.13;;;122.40;;
26201;SDS011;13944;28.562;77.188;2022-12-07T13:24:20;200.07;;;120.30;;
26201;SDS011;13944;28.562;77.188;2022-12-07T13:26:47;198.97;;;120.80;;
26201;SDS011;13944;28.562;77.188;2022-12-07T13:31:44;206.37;;;120.27;;
26201;SDS011;13944;28.562;77.188;2022-12-07T13:36:58;240.63;;;134.20;;
26201;SDS011;13944;28.562;77.188;2022-12-07T13:39:25;214.00;;;129.37;;
26201;SDS011;13944;28.562;77.188;2022-12-07T13:41:56;199.90;;;126.30;;
26201;SDS011;13944;28.562;77.188;2022-12-07T13:44:24;207.27;;;126.33;;
26201;SDS011;13944;28.562;77.188;2022-12-07T13:49:24;204.63;;;119.67;;
26201;SDS011;13944;28.562;77.188;2022-12-07T13:51:51;201.90;;;119.90;;
26201;SDS011;13944;28.562;77.188;2022-12-07T13:54:18;182.73;;;113.77;;
26201;SDS011;13944;28.562;77.188;2022-12-07T13:56:54;189.60;;;115.93;;
26201;SDS011;13944;28.562;77.188;2022-12-07T13:59:21;186.97;;;116.73;;
26201;SDS011;13944;28.562;77.188;2022-12-07T14:01:49;188.77;;;116.07;;
26201;SDS011;13944;28.562;77.188;2022-12-07T14:04:33;192.37;;;119.83;;
26201;SDS011;13944;28.562;77.188;2022-12-07T14:11:06;189.27;;;116.27;;
26201;SDS011;13944;28.562;77.188;2022-12-07T14:16:01;190.47;;;116.87;;
26201;SDS011;13944;28.562;77.188;2022-12-07T14:18:30;191.30;;;114.93;;
26201;SDS011;13944;28.562;77.188;2022-12-07T14:21:13;182.67;;;118.07;;
26201;SDS011;13944;28.562;77.188;2022-12-07T14:23:41;179.43;;;116.70;;
26201;SDS011;13944;28.562;77.188;2022-12-07T14:26:28;185.23;;;116.63;;
26201;SDS011;13944;28.562;77.188;2022-12-07T14:28:59;200.37;;;121.03;;
26201;SDS011;13944;28.562;77.188;2022-12-07T14:31:40;186.07;;;117.83;;
26201;SDS011;13944;28.562;77.188;2022-12-07T14:34:11;199.20;;;116.53;;
26201;SDS011;13944;28.562;77.188;2022-12-07T14:36:37;188.90;;;113.50;;
26201;SDS011;13944;28.562;77.188;2022-12-07T14:39:04;192.57;;;115.97;;
26201;SDS011;13944;28.562;77.188;2022-12-07T14:41:30;185.70;;;114.00;;
26201;SDS011;13944;28.562;77.188;2022-12-07T14:44:15;179.07;;;115.33;;
26201;SDS011;13944;28.562;77.188;2022-12-07T14:46:42;186.43;;;118.73;;
26201;SDS011;13944;28.562;77.188;2022-12-07T14:49:09;190.50;;;116.33;;
26201;SDS011;13944;28.562;77.188;2022-12-07T14:51:39;193.30;;;118.20;;
26201;SDS011;13944;28.562;77.188;2022-12-07T14:54:07;188.30;;;116.50;;
26201;SDS011;13944;28.562;77.188;2022-12-07T14:56:39;179.57;;;114.40;;
26201;SDS011;13944;28.562;77.188;2022-12-07T14:59:05;178.10;;;114.17;;
26201;SDS011;13944;28.562;77.188;2022-12-07T15:01:32;181.53;;;115.73;;
26201;SDS011;13944;28.562;77.188;2022-12-07T15:03:58;175.80;;;112.27;;
26201;SDS011;13944;28.562;77.188;2022-12-07T15:06:25;175.67;;;109.27;;
26201;SDS011;13944;28.562;77.188;2022-12-07T15:08:51;190.23;;;111.73;;
26201;SDS011;13944;28.562;77.188;2022-12-07T15:11:18;168.90;;;107.43;;
26201;SDS011;13944;28.562;77.188;2022-12-07T15:13:45;178.77;;;106.53;;
26201;SDS011;13944;28.562;77.188;2022-12-07T15:16:30;171.60;;;108.03;;
26201;SDS011;13944;28.562;77.188;2022-12-07T15:18:57;173.73;;;109.80;;
26201;SDS011;13944;28.562;77.188;2022-12-07T15:21:23;167.77;;;108.23;;
26201;SDS011;13944;28.562;77.188;2022-12-07T15:23:50;179.77;;;107.77;;
26201;SDS011;13944;28.562;77.188;2022-12-07T15:26:16;173.10;;;108.53;;
26201;SDS011;13944;28.562;77.188;2022-12-07T15:28:43;186.10;;;109.03;;
26201;SDS011;13944;28.562;77.188;2022-12-07T15:31:13;168.53;;;106.63;;
26201;SDS011;13944;28.562;77.188;2022-12-07T15:33:40;166.47;;;102.77;;
26201;SDS011;13944;28.562;77.188;2022-12-07T15:36:07;171.80;;;106.17;;
26201;SDS011;13944;28.562;77.188;2022-12-07T15:38:34;169.47;;;100.87;;
26201;SDS011;13944;28.562;77.188;2022-12-07T15:41:01;175.13;;;103.47;;
26201;SDS011;13944;28.562;77.188;2022-12-07T15:43:28;173.33;;;105.00;;
26201;SDS011;13944;28.562;77.188;2022-12-07T15:46:13;165.47;;;101.37;;
26201;SDS011;13944;28.562;77.188;2022-12-07T15:48:39;168.97;;;102.00;;
26201;SDS011;13944;28.562;77.188;2022-12-07T15:51:07;169.90;;;99.97;;
26201;SDS011;13944;28.562;77.188;2022-12-07T15:53:34;166.70;;;102.77;;
26201;SDS011;13944;28.562;77.188;2022-12-07T15:56:01;157.30;;;99.93;;
26201;SDS011;13944;28.562;77.188;2022-12-07T15:58:32;161.77;;;100.07;;